Time;durP1;ratioP1;P1;durP2;ratioP2;P2;SDS_P1;SDS_P2;PMS_P1;PMS_P2;Temp;Humidity;BMP_temperature;BMP_pressure;BME280_temperature;BME280_humidity;BME280_pressure;Samples;Min_cycle;Max_cycle;Signal;HPM_P1;HPM_P2
2021/08/04 00:01:51;;;;;;;1.42;1.33;;;;;19.50;101252.00;;;;5039786;28;20184;-79
2021/08/04 00:04:19;;;;;;;1.67;1.35;;;;;19.50;101251.00;;;;5044554;28;20192;-79
2021/08/04 00:06:46;;;;;;;1.90;1.60;;;;;19.50;101252.00;;;;5044066;28;20203;-78
2021/08/04 00:09:13;;;;;;;1.42;1.15;;;;;19.50;101254.00;;;;5047540;28;20665;-78
2021/08/04 00:11:41;;;;;;;1.70;1.40;;;;;19.50;101252.00;;;;5048128;28;20702;-78
2021/08/04 00:14:08;;;;;;;2.75;1.58;;;;;19.40;101256.00;;;;5047786;28;20230;-79
2021/08/04 00:16:37;;;;;;;1.90;1.40;;;;;19.40;101248.00;;;;5038723;28;20223;-79
2021/08/04 00:19:05;;;;;;;3.65;1.67;;;;;19.40;101255.00;;;;5046284;28;20203;-79
2021/08/04 00:21:33;;;;;;;1.60;1.50;;;;;19.40;101252.00;;;;5045239;28;20203;-78
2021/08/04 00:24:00;;;;;;;1.50;1.33;;;;;19.40;101246.00;;;;5040842;28;20195;-79
2021/08/04 00:26:27;;;;;;;3.17;1.23;;;;;19.40;101252.00;;;;5047334;28;20195;-78
2021/08/04 00:28:54;;;;;;;2.50;1.50;;;;;19.40;101247.00;;;;5047033;28;20219;-78
2021/08/04 00:31:22;;;;;;;1.90;1.55;;;;;19.40;101250.00;;;;5034433;28;20542;-78
2021/08/04 00:33:50;;;;;;;1.77;1.60;;;;;19.30;101243.00;;;;5028605;28;20199;-79
2021/08/04 00:36:18;;;;;;;1.83;1.58;;;;;19.40;101247.00;;;;5040381;28;20627;-78
2021/08/04 00:38:45;;;;;;;3.30;1.50;;;;;19.30;101249.00;;;;5048581;28;20203;-78
2021/08/04 00:41:13;;;;;;;4.97;1.92;;;;;19.30;101243.00;;;;5047859;28;20402;-79
2021/08/04 00:43:40;;;;;;;2.42;1.65;;;;;19.30;101251.00;;;;5048378;28;20575;-78
2021/08/04 00:46:07;;;;;;;2.90;1.77;;;;;19.30;101255.00;;;;5045925;28;20191;-78
2021/08/04 00:48:34;;;;;;;3.40;1.88;;;;;19.30;101254.00;;;;5047757;28;20199;-78
2021/08/04 00:51:03;;;;;;;2.22;1.80;;;;;19.30;101253.00;;;;5045764;28;20266;-78
2021/08/04 00:53:31;;;;;;;2.25;1.70;;;;;19.30;101254.00;;;;5035501;28;20204;-78
2021/08/04 00:56:00;;;;;;;2.28;1.52;;;;;19.30;101258.00;;;;5036234;28;20814;-78
2021/08/04 00:58:31;;;;;;;3.85;1.77;;;;;19.30;101260.00;;;;5048301;28;20203;-78
2021/08/04 01:01:05;;;;;;;2.50;1.83;;;;;19.20;101259.00;;;;5045972;28;20192;-78
2021/08/04 01:03:39;;;;;;;1.95;1.75;;;;;19.20;101260.00;;;;5047871;28;20203;-78
2021/08/04 01:06:12;;;;;;;1.55;1.45;;;;;19.20;101264.00;;;;5041524;28;20188;-79
2021/08/04 01:08:43;;;;;;;2.28;1.98;;;;;19.20;101267.00;;;;5031271;28;20187;-78
2021/08/04 01:11:12;;;;;;;4.03;1.58;;;;;19.20;101268.00;;;;5038025;28;20196;-78
2021/08/04 01:13:45;;;;;;;3.85;2.10;;;;;19.20;101265.00;;;;5052376;28;20188;-78
2021/08/04 01:16:15;;;;;;;1.95;1.75;;;;;19.20;101259.00;;;;5050152;28;20234;-78
2021/08/04 01:18:48;;;;;;;2.08;1.88;;;;;19.20;101268.00;;;;5047411;28;20200;-78
2021/08/04 01:21:20;;;;;;;2.92;1.50;;;;;19.20;101272.00;;;;5040627;28;20192;-79
2021/08/04 01:23:55;;;;;;;2.63;1.95;;;;;19.10;101263.00;;;;5038040;28;20219;-78
2021/08/04 01:26:30;;;;;;;2.42;1.88;;;;;19.10;101269.00;;;;5043642;28;20195;-78
2021/08/04 01:29:01;;;;;;;1.77;1.52;;;;;19.20;101253.00;;;;5048446;28;20210;-78
2021/08/04 01:31:32;;;;;;;1.75;1.52;;;;;19.10;101259.00;;;;5047028;28;20207;-78
2021/08/04 01:34:00;;;;;;;2.17;1.60;;;;;19.20;101254.00;;;;5050835;28;20223;-78
2021/08/04 01:36:28;;;;;;;1.85;1.67;;;;;19.10;101247.00;;;;5049329;28;20227;-77
2021/08/04 01:38:58;;;;;;;2.38;1.50;;;;;19.10;101244.00;;;;5051222;28;20200;-78
2021/08/04 01:41:26;;;;;;;2.17;1.92;;;;;19.10;101242.00;;;;5050591;28;20210;-78
2021/08/04 01:43:57;;;;;;;2.13;1.70;;;;;19.10;101251.00;;;;5050120;28;20280;-78
2021/08/04 01:46:24;;;;;;;2.13;1.52;;;;;19.10;101247.00;;;;5046147;28;20202;-79
2021/08/04 01:48:53;;;;;;;3.67;1.77;;;;;19.10;101252.00;;;;5037400;28;20204;-78
2021/08/04 01:51:25;;;;;;;1.98;1.77;;;;;19.10;101246.00;;;;5044173;28;20650;-78
2021/08/04 01:53:53;;;;;;;2.15;1.77;;;;;19.10;101247.00;;;;5035762;28;20200;-78
2021/08/04 01:56:21;;;;;;;2.22;2.03;;;;;19.10;101244.00;;;;5045927;28;20223;-78
2021/08/04 01:58:48;;;;;;;2.70;1.98;;;;;19.10;101243.00;;;;5040151;28;20208;-78
2021/08/04 02:01:16;;;;;;;3.78;2.00;;;;;19.10;101250.00;;;;5035235;28;20201;-78
2021/08/04 02:03:43;;;;;;;1.83;1.48;;;;;19.10;101248.00;;;;5031121;28;20195;-78
2021/08/04 02:06:20;;;;;;;2.42;1.92;;;;;19.00;101241.00;;;;5043877;28;20204;-78
2021/08/04 02:08:57;;;;;;;2.00;1.77;;;;;19.00;101246.00;;;;5051200;28;20203;-78
2021/08/04 02:11:29;;;;;;;2.05;1.83;;;;;19.10;101240.00;;;;5031382;28;20200;-78
2021/08/04 02:14:01;;;;;;;2.75;2.05;;;;;19.10;101241.00;;;;5035598;28;20215;-78
2021/08/04 02:16:34;;;;;;;2.28;1.65;;;;;19.10;101241.00;;;;5049111;28;20212;-78
2021/08/04 02:19:11;;;;;;;3.15;2.05;;;;;19.00;101239.00;;;;5040227;28;20192;-78
2021/08/04 02:21:41;;;;;;;2.40;1.92;;;;;19.10;101235.00;;;;5040140;28;20294;-78
2021/08/04 02:24:10;;;;;;;2.15;1.67;;;;;19.10;101236.00;;;;5045259;28;20204;-77
2021/08/04 02:26:39;;;;;;;2.53;1.75;;;;;19.10;101233.00;;;;5048703;28;20207;-78
2021/08/04 02:29:08;;;;;;;4.38;2.40;;;;;19.10;101234.00;;;;5042851;28;20212;-78
2021/08/04 02:31:37;;;;;;;3.17;2.25;;;;;19.10;101235.00;;;;5045761;28;20192;-78
2021/08/04 02:34:05;;;;;;;3.53;2.38;;;;;19.10;101235.00;;;;5039905;28;20234;-78
2021/08/04 02:36:33;;;;;;;3.17;1.63;;;;;19.20;101237.00;;;;5040726;28;20334;-79
2021/08/04 02:39:02;;;;;;;2.70;1.90;;;;;19.20;101235.00;;;;5049419;28;20203;-78
2021/08/04 02:41:30;;;;;;;2.47;2.05;;;;;19.20;101237.00;;;;5049538;28;20198;-78
2021/08/04 02:43:58;;;;;;;2.50;2.00;;;;;19.20;101231.00;;;;5036200;28;20199;-78
2021/08/04 02:46:26;;;;;;;2.67;2.15;;;;;19.20;101233.00;;;;5049083;28;20206;-78
2021/08/04 02:48:55;;;;;;;2.53;2.30;;;;;19.20;101231.00;;;;5048592;28;20233;-78
2021/08/04 02:51:23;;;;;;;4.45;2.60;;;;;19.20;101230.00;;;;5030534;28;20207;-78
2021/08/04 02:53:55;;;;;;;2.53;1.95;;;;;19.20;101228.00;;;;5030033;28;20627;-78
2021/08/04 02:56:23;;;;;;;2.80;2.28;;;;;19.30;101238.00;;;;5049763;28;20255;-79
2021/08/04 02:58:50;;;;;;;2.63;2.33;;;;;19.30;101235.00;;;;5049161;28;20207;-78
2021/08/04 03:01:18;;;;;;;2.78;2.20;;;;;19.30;101234.00;;;;5042554;28;20222;-78
2021/08/04 03:03:45;;;;;;;3.08;2.10;;;;;19.30;101235.00;;;;5048934;28;20192;-78
2021/08/04 03:06:14;;;;;;;2.10;1.90;;;;;19.30;101228.00;;;;5036448;28;20200;-79
2021/08/04 03:08:41;;;;;;;2.80;1.90;;;;;19.40;101228.00;;;;5030481;28;20204;-79
2021/08/04 03:11:09;;;;;;;3.05;2.75;;;;;19.30;101221.00;;;;5032997;28;20200;-79
2021/08/04 03:13:37;;;;;;;3.17;1.73;;;;;19.40;101223.00;;;;5046153;28;20616;-79
2021/08/04 03:16:05;;;;;;;3.30;2.28;;;;;19.40;101218.00;;;;5047393;28;20210;-79
2021/08/04 03:18:32;;;;;;;2.65;1.90;;;;;19.40;101220.00;;;;5049002;28;20200;-79
2021/08/04 03:21:00;;;;;;;3.05;2.00;;;;;19.40;101218.00;;;;5042506;28;20230;-79
2021/08/04 03:23:28;;;;;;;2.65;2.15;;;;;19.40;101221.00;;;;5043921;28;20199;-78
2021/08/04 03:25:56;;;;;;;3.00;1.83;;;;;19.40;101217.00;;;;5047477;28;20318;-79
2021/08/04 03:28:23;;;;;;;2.20;2.00;;;;;19.40;101216.00;;;;5049510;28;20216;-79
2021/08/04 03:30:50;;;;;;;2.28;2.00;;;;;19.40;101220.00;;;;5039467;28;20214;-79
2021/08/04 03:33:17;;;;;;;2.50;1.83;;;;;19.40;101224.00;;;;5033066;28;20208;-78
2021/08/04 03:35:45;;;;;;;3.05;2.00;;;;;19.40;101222.00;;;;5043707;28;20239;-79
2021/08/04 03:38:12;;;;;;;4.47;1.75;;;;;19.40;101218.00;;;;5029575;28;20705;-79
2021/08/04 03:40:40;;;;;;;3.53;1.95;;;;;19.40;101225.00;;;;5043265;28;20196;-79
2021/08/04 03:43:08;;;;;;;3.40;2.30;;;;;19.40;101229.00;;;;5049440;28;20218;-79
2021/08/04 03:45:35;;;;;;;2.53;1.83;;;;;19.40;101219.00;;;;5031518;28;21036;-78
2021/08/04 03:48:02;;;;;;;2.58;2.17;;;;;19.40;101225.00;;;;5041059;28;20203;-78
2021/08/04 03:50:29;;;;;;;2.65;2.17;;;;;19.40;101227.00;;;;5049107;28;20203;-79
2021/08/04 03:52:57;;;;;;;4.95;2.08;;;;;19.40;101223.00;;;;5046314;28;20207;-79
2021/08/04 03:55:24;;;;;;;2.70;2.20;;;;;19.40;101222.00;;;;5039696;28;20293;-79
2021/08/04 03:57:53;;;;;;;2.05;1.83;;;;;19.40;101223.00;;;;5028909;28;20243;-79
2021/08/04 04:00:20;;;;;;;3.80;1.92;;;;;19.40;101217.00;;;;5038526;28;20196;-79
2021/08/04 04:02:47;;;;;;;3.08;2.33;;;;;19.40;101226.00;;;;5046173;28;20192;-78
2021/08/04 04:05:15;;;;;;;2.53;1.88;;;;;19.40;101236.00;;;;5047393;28;20211;-78
2021/08/04 04:07:42;;;;;;;2.90;2.50;;;;;19.40;101235.00;;;;5032310;28;20245;-79
2021/08/04 04:10:11;;;;;;;2.95;2.22;;;;;19.40;101236.00;;;;5042845;28;20200;-79
2021/08/04 04:12:38;;;;;;;2.53;2.20;;;;;19.40;101238.00;;;;5046644;28;20226;-79
2021/08/04 04:15:08;;;;;;;2.42;1.92;;;;;19.30;101234.00;;;;5046824;28;20997;-78
2021/08/04 04:17:35;;;;;;;2.97;2.17;;;;;19.40;101239.00;;;;5047288;28;20582;-79
2021/08/04 04:20:03;;;;;;;3.25;2.05;;;;;19.40;101237.00;;;;5038820;28;20199;-78
2021/08/04 04:22:30;;;;;;;2.50;2.17;;;;;19.40;101242.00;;;;5039406;28;20200;-79
2021/08/04 04:24:57;;;;;;;2.38;2.17;;;;;19.30;101244.00;;;;5035817;28;20666;-79
2021/08/04 04:27:24;;;;;;;4.55;2.42;;;;;19.30;101247.00;;;;5048661;28;20199;-79
2021/08/04 04:29:52;;;;;;;2.65;2.20;;;;;19.30;101254.00;;;;5042647;28;20204;-79
2021/08/04 04:32:20;;;;;;;2.63;2.25;;;;;19.30;101252.00;;;;5045910;28;20188;-79
2021/08/04 04:34:48;;;;;;;2.67;2.30;;;;;19.30;101248.00;;;;5037003;28;20230;-80
2021/08/04 04:37:15;;;;;;;3.17;2.22;;;;;19.30;101257.00;;;;5048746;28;20223;-79
2021/08/04 04:39:42;;;;;;;2.17;1.92;;;;;19.30;101259.00;;;;5044850;28;20210;-79
2021/08/04 04:42:09;;;;;;;2.42;1.85;;;;;19.40;101264.00;;;;5048033;28;20204;-79
2021/08/04 04:44:36;;;;;;;2.65;1.88;;;;;19.30;101255.00;;;;5034156;28;20202;-79
2021/08/04 04:47:04;;;;;;;3.22;2.20;;;;;19.30;101257.00;;;;5030956;28;20204;-79
2021/08/04 04:49:32;;;;;;;3.83;2.60;;;;;19.30;101258.00;;;;5049204;28;20187;-79
2021/08/04 04:52:00;;;;;;;2.47;2.15;;;;;19.40;101251.00;;;;5049129;28;20188;-77
2021/08/04 04:54:27;;;;;;;2.65;2.20;;;;;19.40;101247.00;;;;5033857;28;20546;-77
2021/08/04 04:56:54;;;;;;;2.30;2.10;;;;;19.40;101254.00;;;;5048455;28;20225;-77
2021/08/04 04:59:21;;;;;;;2.95;2.13;;;;;19.40;101254.00;;;;5051245;28;20219;-77
2021/08/04 05:01:48;;;;;;;3.10;2.58;;;;;19.40;101251.00;;;;5048717;28;20195;-77
2021/08/04 05:04:16;;;;;;;3.13;2.83;;;;;19.40;101255.00;;;;5039056;28;20192;-77
2021/08/04 05:06:45;;;;;;;2.40;1.90;;;;;19.40;101257.00;;;;5049614;28;20202;-77
2021/08/04 05:09:13;;;;;;;2.85;2.60;;;;;19.50;101256.00;;;;5039620;28;20199;-78
2021/08/04 05:11:40;;;;;;;2.80;2.42;;;;;19.50;101258.00;;;;5051704;28;20833;-77
2021/08/04 05:14:07;;;;;;;3.10;2.45;;;;;19.60;101258.00;;;;5044490;28;20199;-77
2021/08/04 05:16:34;;;;;;;3.60;2.80;;;;;19.60;101260.00;;;;5050823;28;20198;-77
2021/08/04 05:19:01;;;;;;;4.68;2.58;;;;;19.60;101259.00;;;;5046025;28;20666;-77
2021/08/04 05:21:29;;;;;;;3.03;2.35;;;;;19.70;101269.00;;;;5049907;28;20200;-77
2021/08/04 05:23:57;;;;;;;2.85;2.47;;;;;19.70;101266.00;;;;5038948;28;20206;-78
2021/08/04 05:26:25;;;;;;;6.68;2.60;;;;;19.80;101268.00;;;;5036969;28;20192;-78
2021/08/04 05:28:52;;;;;;;2.83;2.58;;;;;19.90;101273.00;;;;5043472;28;20720;-78
2021/08/04 05:31:21;;;;;;;5.97;2.45;;;;;19.90;101276.00;;;;5041735;28;20253;-78
2021/08/04 05:33:48;;;;;;;2.65;2.22;;;;;20.00;101279.00;;;;5034341;28;20303;-78
2021/08/04 05:36:15;;;;;;;2.58;2.38;;;;;20.10;101280.00;;;;5038971;28;20580;-78
2021/08/04 05:38:42;;;;;;;3.70;2.42;;;;;20.10;101284.00;;;;5035776;28;20220;-78
2021/08/04 05:41:11;;;;;;;2.72;2.38;;;;;20.20;101280.00;;;;5040040;28;20196;-78
2021/08/04 05:43:38;;;;;;;3.05;2.30;;;;;20.20;101273.00;;;;5037865;28;20553;-78
2021/08/04 05:46:05;;;;;;;3.95;2.42;;;;;20.30;101276.00;;;;5036109;28;20200;-78
2021/08/04 05:48:32;;;;;;;3.33;2.45;;;;;20.30;101275.00;;;;5038785;28;20203;-79
2021/08/04 05:51:00;;;;;;;11.98;3.33;;;;;20.40;101279.00;;;;5038170;28;20191;-79
2021/08/04 05:53:27;;;;;;;2.55;2.20;;;;;20.40;101272.00;;;;5035164;28;20697;-77
2021/08/04 05:55:54;;;;;;;4.65;2.88;;;;;20.50;101282.00;;;;5040375;28;20213;-77
2021/08/04 05:58:22;;;;;;;4.15;2.38;;;;;20.50;101282.00;;;;5037211;28;20223;-76
2021/08/04 06:00:50;;;;;;;3.83;2.70;;;;;20.60;101285.00;;;;5037476;28;20200;-76
2021/08/04 06:03:17;;;;;;;2.95;2.65;;;;;20.60;101281.00;;;;5032980;28;20204;-76
2021/08/04 06:05:44;;;;;;;2.83;2.50;;;;;20.60;101293.00;;;;5038725;28;20624;-76
2021/08/04 06:08:11;;;;;;;3.83;2.90;;;;;20.70;101288.00;;;;5031261;28;20200;-76
2021/08/04 06:10:38;;;;;;;3.38;2.83;;;;;20.70;101293.00;;;;5031446;28;20205;-76
2021/08/04 06:13:06;;;;;;;5.32;2.97;;;;;20.70;101295.00;;;;5030992;28;20200;-76
2021/08/04 06:15:34;;;;;;;3.58;2.83;;;;;20.80;101296.00;;;;5040195;28;20203;-75
2021/08/04 06:18:01;;;;;;;3.03;2.60;;;;;20.80;101295.00;;;;5049786;28;20220;-77
2021/08/04 06:20:29;;;;;;;2.63;2.42;;;;;20.80;101297.00;;;;5047472;28;20199;-77
2021/08/04 06:22:56;;;;;;;3.78;2.85;;;;;20.90;101297.00;;;;5044298;28;20204;-76
2021/08/04 06:25:24;;;;;;;3.28;2.70;;;;;20.90;101293.00;;;;5046864;28;20193;-76
2021/08/04 06:27:52;;;;;;;2.88;2.58;;;;;20.90;101302.00;;;;5049378;28;20207;-76
2021/08/04 06:30:20;;;;;;;3.13;2.83;;;;;20.90;101300.00;;;;5048862;28;20205;-75
2021/08/04 06:32:48;;;;;;;3.13;2.83;;;;;21.00;101303.00;;;;5050686;28;20743;-76
2021/08/04 06:35:15;;;;;;;3.50;2.78;;;;;21.00;101294.00;;;;5045123;28;20234;-76
2021/08/04 06:37:43;;;;;;;3.35;2.85;;;;;21.10;101296.00;;;;5031519;28;20224;-75
2021/08/04 06:40:11;;;;;;;4.65;3.13;;;;;21.10;101294.00;;;;5042919;28;20282;-76
2021/08/04 06:42:38;;;;;;;3.00;2.80;;;;;21.10;101296.00;;;;5037358;28;20223;-76
2021/08/04 06:45:07;;;;;;;3.05;2.33;;;;;21.20;101303.00;;;;5031294;28;20197;-77
2021/08/04 06:47:34;;;;;;;4.57;2.50;;;;;21.30;101300.00;;;;5048220;28;20207;-76
2021/08/04 06:50:03;;;;;;;3.67;3.03;;;;;21.30;101296.00;;;;5042735;28;20188;-76
2021/08/04 06:52:30;;;;;;;3.10;2.80;;;;;21.40;101301.00;;;;5038534;28;20203;-76
2021/08/04 06:54:57;;;;;;;3.28;2.97;;;;;21.50;101302.00;;;;5048106;28;20206;-77
2021/08/04 06:57:24;;;;;;;3.22;2.92;;;;;21.50;101305.00;;;;5039129;28;20193;-77
2021/08/04 06:59:52;;;;;;;3.22;2.90;;;;;21.60;101304.00;;;;5048395;28;20199;-77
2021/08/04 07:02:19;;;;;;;3.55;2.65;;;;;21.70;101303.00;;;;5041652;28;20211;-77
2021/08/04 07:04:46;;;;;;;3.92;3.33;;;;;21.80;101306.00;;;;5029644;28;20193;-76
2021/08/04 07:07:17;;;;;;;2.80;2.50;;;;;21.80;101305.00;;;;5029784;28;20207;-77
2021/08/04 07:09:44;;;;;;;3.83;2.58;;;;;21.90;101300.00;;;;5032047;28;20263;-77
2021/08/04 07:12:11;;;;;;;3.25;2.58;;;;;22.00;101298.00;;;;5049101;28;20203;-76
2021/08/04 07:14:39;;;;;;;3.05;2.63;;;;;22.10;101292.00;;;;5035241;28;20205;-77
2021/08/04 07:17:06;;;;;;;3.15;2.85;;;;;22.20;101292.00;;;;5029510;28;20750;-77
2021/08/04 07:19:34;;;;;;;6.45;3.03;;;;;22.30;101301.00;;;;5044826;28;20226;-77
2021/08/04 07:22:02;;;;;;;3.28;2.95;;;;;22.30;101301.00;;;;5046887;28;20192;-77
2021/08/04 07:24:30;;;;;;;3.03;2.80;;;;;22.40;101296.00;;;;5033993;28;20195;-77
2021/08/04 07:26:58;;;;;;;4.72;3.08;;;;;22.50;101304.00;;;;5028412;28;20204;-77
2021/08/04 07:29:25;;;;;;;4.05;2.58;;;;;22.60;101299.00;;;;5040422;28;20227;-76
2021/08/04 07:31:52;;;;;;;3.60;2.67;;;;;22.60;101302.00;;;;5047799;28;20199;-75
2021/08/04 07:34:24;;;;;;;4.30;2.55;;;;;22.70;101302.00;;;;5046423;28;20250;-78
2021/08/04 07:36:52;;;;;;;3.38;2.55;;;;;22.80;101297.00;;;;5045502;28;20206;-79
2021/08/04 07:39:20;;;;;;;3.38;2.80;;;;;22.80;101302.00;;;;5044070;28;20719;-80
2021/08/04 07:41:49;;;;;;;3.33;2.80;;;;;22.90;101302.00;;;;5049066;28;20203;-80
2021/08/04 07:44:16;;;;;;;3.70;3.10;;;;;23.00;101303.00;;;;5049595;28;20211;-80
2021/08/04 07:46:43;;;;;;;3.58;3.28;;;;;23.10;101297.00;;;;5047950;28;20214;-79
2021/08/04 07:49:11;;;;;;;3.63;3.05;;;;;23.20;101302.00;;;;5049010;28;20249;-79
2021/08/04 07:51:39;;;;;;;3.42;2.95;;;;;23.30;101300.00;;;;5049022;28;20203;-79
2021/08/04 07:54:06;;;;;;;4.35;3.55;;;;;23.40;101301.00;;;;5046426;28;20652;-80
2021/08/04 07:56:33;;;;;;;4.05;3.28;;;;;23.50;101301.00;;;;5029322;28;20200;-79
2021/08/04 07:59:04;;;;;;;3.33;3.03;;;;;23.60;101296.00;;;;5029280;28;20724;-78
2021/08/04 08:01:32;;;;;;;4.53;3.10;;;;;23.80;101306.00;;;;5028925;28;20296;-79
2021/08/04 08:03:59;;;;;;;3.53;2.90;;;;;23.90;101305.00;;;;5043953;28;20211;-79
2021/08/04 08:06:27;;;;;;;3.25;2.85;;;;;24.00;101300.00;;;;5049628;28;20206;-78
2021/08/04 08:08:54;;;;;;;2.67;2.47;;;;;24.10;101304.00;;;;5048755;28;20211;-78
2021/08/04 08:11:21;;;;;;;3.88;2.60;;;;;24.20;101307.00;;;;5049218;28;20206;-78
2021/08/04 08:13:49;;;;;;;3.05;2.67;;;;;24.30;101306.00;;;;5048060;28;20191;-79
2021/08/04 08:16:18;;;;;;;5.78;2.45;;;;;24.40;101309.00;;;;5049063;28;20203;-78
2021/08/04 08:18:46;;;;;;;3.75;2.58;;;;;24.50;101303.00;;;;5048629;28;20231;-79
2021/08/04 08:21:13;;;;;;;2.83;2.55;;;;;24.60;101294.00;;;;5048516;28;20316;-79
2021/08/04 08:23:40;;;;;;;2.58;2.38;;;;;24.70;101304.00;;;;5039360;28;20207;-78
2021/08/04 08:26:07;;;;;;;4.22;2.65;;;;;24.90;101302.00;;;;5029127;28;20208;-79
2021/08/04 08:28:35;;;;;;;3.50;2.42;;;;;25.00;101296.00;;;;5028498;28;20217;-80
2021/08/04 08:31:02;;;;;;;2.50;2.20;;;;;25.10;101295.00;;;;5028924;28;20402;-79
2021/08/04 08:33:30;;;;;;;3.95;2.30;;;;;25.20;101291.00;;;;5028909;28;20203;-79
2021/08/04 08:35:58;;;;;;;5.63;2.25;;;;;25.30;101292.00;;;;5044948;28;20234;-78
2021/08/04 08:38:25;;;;;;;2.70;2.22;;;;;25.50;101284.00;;;;5048239;28;20230;-80
2021/08/04 08:40:52;;;;;;;3.35;2.08;;;;;25.60;101286.00;;;;5048559;28;20207;-80
2021/08/04 08:43:20;;;;;;;3.28;2.10;;;;;25.70;101285.00;;;;5048870;28;20208;-79
2021/08/04 08:45:50;;;;;;;3.85;2.45;;;;;25.80;101295.00;;;;5048874;28;20423;-78
2021/08/04 08:48:17;;;;;;;3.45;1.90;;;;;25.90;101295.00;;;;5048976;28;20670;-80
2021/08/04 08:50:49;;;;;;;2.63;2.00;;;;;26.00;101287.00;;;;5045450;28;20548;-79
2021/08/04 08:53:17;;;;;;;2.40;1.90;;;;;26.20;101285.00;;;;5030077;28;20204;-79
2021/08/04 08:55:45;;;;;;;2.53;1.80;;;;;26.30;101287.00;;;;5048217;28;20211;-80
2021/08/04 08:58:12;;;;;;;3.30;2.08;;;;;26.40;101284.00;;;;5048909;28;20223;-79
2021/08/04 09:00:39;;;;;;;2.40;2.03;;;;;26.50;101288.00;;;;5048377;28;20200;-80
2021/08/04 09:03:07;;;;;;;2.60;1.73;;;;;26.60;101283.00;;;;5047790;28;20211;-79
2021/08/04 09:05:50;;;;;;;3.42;2.40;;;;;26.60;101280.00;;;;5046815;28;20198;-79
2021/08/04 09:08:25;;;;;;;4.82;2.15;;;;;26.80;101282.00;;;;5048243;28;20204;-79
2021/08/04 09:10:53;;;;;;;2.17;1.98;;;;;26.90;101282.00;;;;5047365;28;20199;-80
2021/08/04 09:13:31;;;;;;;2.03;1.77;;;;;27.00;101286.00;;;;5048664;28;20226;-80
2021/08/04 09:16:04;;;;;;;1.80;1.58;;;;;27.10;101279.00;;;;5047317;28;20227;-78
2021/08/04 09:18:40;;;;;;;1.83;1.45;;;;;27.10;101275.00;;;;5048377;28;20230;-79
2021/08/04 09:21:09;;;;;;;2.15;1.48;;;;;27.30;101269.00;;;;5048246;28;20258;-78
2021/08/04 09:23:43;;;;;;;2.42;1.63;;;;;27.30;101271.00;;;;5034498;28;20210;-78
2021/08/04 09:26:12;;;;;;;2.38;1.45;;;;;27.50;101271.00;;;;5028688;28;20886;-79
2021/08/04 09:28:59;;;;;;;2.45;1.20;;;;;27.50;101274.00;;;;5041199;28;20227;-78
2021/08/04 09:31:51;;;;;;;3.33;1.73;;;;;27.60;101279.00;;;;5048603;28;20191;-79
2021/08/04 09:34:34;;;;;;;1.98;1.60;;;;;27.70;101275.00;;;;5051981;28;20253;-78
2021/08/04 09:37:07;;;;;;;3.38;1.90;;;;;27.90;101276.00;;;;5050636;28;20196;-79
2021/08/04 09:39:36;;;;;;;4.07;1.75;;;;;28.00;101284.00;;;;5050998;28;20400;-79
2021/08/04 09:42:03;;;;;;;2.20;0.95;;;;;28.10;101277.00;;;;5051823;28;20203;-78
2021/08/04 09:44:31;;;;;;;1.38;1.27;;;;;28.10;101280.00;;;;5051564;28;20214;-78
2021/08/04 09:47:09;;;;;;;2.30;1.50;;;;;28.10;101278.00;;;;5050586;28;20207;-79
2021/08/04 09:49:36;;;;;;;2.17;1.95;;;;;28.30;101270.00;;;;5051534;28;20203;-78
2021/08/04 09:52:07;;;;;;;1.90;1.40;;;;;28.30;101275.00;;;;5051574;28;20195;-79
2021/08/04 09:54:39;;;;;;;2.35;1.30;;;;;28.50;101280.00;;;;5051400;28;20204;-77
2021/08/04 09:57:07;;;;;;;2.65;1.90;;;;;28.60;101280.00;;;;5051720;28;20199;-77
2021/08/04 09:59:34;;;;;;;2.63;2.00;;;;;28.60;101273.00;;;;5051638;28;20224;-78
2021/08/04 10:02:02;;;;;;;1.67;1.58;;;;;28.60;101270.00;;;;5050319;28;20252;-77
2021/08/04 10:04:30;;;;;;;4.50;1.73;;;;;28.60;101261.00;;;;5051413;28;20191;-78
2021/08/04 10:07:07;;;;;;;2.42;1.75;;;;;28.60;101262.00;;;;5050135;28;20294;-78
2021/08/04 10:09:35;;;;;;;2.30;1.70;;;;;28.70;101269.00;;;;5051285;28;20200;-77
2021/08/04 10:12:04;;;;;;;2.35;1.55;;;;;28.80;101265.00;;;;5051388;28;20206;-77
2021/08/04 10:14:32;;;;;;;4.00;1.77;;;;;28.80;101260.00;;;;5048573;28;20682;-78
2021/08/04 10:17:00;;;;;;;2.08;1.70;;;;;28.80;101261.00;;;;5050498;28;20200;-80
2021/08/04 10:19:31;;;;;;;3.53;1.63;;;;;28.80;101266.00;;;;5051085;28;20231;-80
2021/08/04 10:21:59;;;;;;;2.58;1.17;;;;;28.80;101270.00;;;;5050441;28;20194;-79
2021/08/04 10:24:28;;;;;;;2.47;1.80;;;;;28.70;101264.00;;;;5050607;28;20196;-76
2021/08/04 10:26:56;;;;;;;1.90;1.63;;;;;28.80;101261.00;;;;5030682;28;20223;-76
2021/08/04 10:29:24;;;;;;;2.08;1.73;;;;;28.80;101263.00;;;;5038522;28;20224;-76
2021/08/04 10:31:52;;;;;;;2.65;1.45;;;;;28.90;101264.00;;;;5049095;28;20211;-79
2021/08/04 10:34:23;;;;;;;2.83;2.03;;;;;29.00;101265.00;;;;5034529;28;20694;-77
2021/08/04 10:36:51;;;;;;;2.03;1.60;;;;;29.10;101264.00;;;;5043777;28;20253;-77
2021/08/04 10:39:21;;;;;;;3.38;1.58;;;;;29.20;101261.00;;;;5036720;28;20236;-79
2021/08/04 10:42:03;;;;;;;3.42;2.30;;;;;29.20;101261.00;;;;5039337;28;20432;-78
2021/08/04 10:44:31;;;;;;;2.45;1.80;;;;;29.30;101256.00;;;;5048068;28;20195;-78
2021/08/04 10:46:59;;;;;;;3.55;2.08;;;;;29.30;101261.00;;;;5041055;28;20197;-77
2021/08/04 10:49:31;;;;;;;3.22;2.15;;;;;29.20;101268.00;;;;5030590;28;20602;-79
2021/08/04 10:52:13;;;;;;;2.22;2.03;;;;;29.10;101267.00;;;;5029968;28;20200;-78
2021/08/04 10:55:07;;;;;;;2.63;1.70;;;;;28.90;101258.00;;;;5030881;28;20204;-78
2021/08/04 10:57:54;;;;;;;2.10;1.90;;;;;28.90;101256.00;;;;5031199;28;20204;-78
2021/08/04 11:00:23;;;;;;;2.10;1.80;;;;;28.80;101256.00;;;;5050108;28;20226;-79
2021/08/04 11:02:51;;;;;;;2.80;1.70;;;;;28.80;101243.00;;;;5049836;28;20219;-80
2021/08/04 11:05:18;;;;;;;2.50;1.85;;;;;28.80;101246.00;;;;5048536;28;20208;-81
2021/08/04 11:08:17;;;;;;;2.88;2.47;;;;;28.60;101247.00;;;;5040062;28;20196;-81
2021/08/04 11:10:45;;;;;;;2.83;1.98;;;;;28.70;101247.00;;;;5045125;28;20230;-82
2021/08/04 11:13:45;;;;;;;4.43;2.20;;;;;28.50;101246.00;;;;5049839;28;20582;-80
2021/08/04 11:16:34;;;;;;;2.03;1.58;;;;;28.50;101242.00;;;;5049762;28;20577;-80
2021/08/04 11:19:07;;;;;;;1.83;1.73;;;;;28.60;101236.00;;;;5049946;28;20223;-81
2021/08/04 11:21:35;;;;;;;2.75;2.17;;;;;28.70;101236.00;;;;5030608;28;20208;-80
2021/08/04 11:24:02;;;;;;;2.83;2.63;;;;;28.70;101235.00;;;;5042682;28;20211;-80
2021/08/04 11:26:33;;;;;;;2.65;2.30;;;;;28.60;101234.00;;;;5048636;28;20206;-81
2021/08/04 11:29:01;;;;;;;2.65;2.08;;;;;28.60;101229.00;;;;5045947;28;20220;-78
2021/08/04 11:31:30;;;;;;;2.35;1.88;;;;;28.60;101236.00;;;;5040679;28;20203;-79
2021/08/04 11:34:02;;;;;;;3.28;1.95;;;;;28.60;101243.00;;;;5047998;28;20258;-79
2021/08/04 11:36:31;;;;;;;2.88;2.10;;;;;28.50;101236.00;;;;5030910;28;20196;-79
2021/08/04 11:39:02;;;;;;;3.95;2.60;;;;;28.40;101232.00;;;;5041339;28;20593;-80
2021/08/04 11:41:35;;;;;;;4.18;2.08;;;;;28.30;101231.00;;;;5049183;28;20621;-79
2021/08/04 11:44:23;;;;;;;2.20;1.70;;;;;28.20;101234.00;;;;5049257;28;20213;-79
2021/08/04 11:46:53;;;;;;;3.20;1.80;;;;;28.30;101227.00;;;;5029342;28;20196;-78
2021/08/04 11:49:26;;;;;;;4.32;2.47;;;;;28.30;101228.00;;;;5033738;28;20188;-78
2021/08/04 11:51:55;;;;;;;2.83;2.08;;;;;28.30;101227.00;;;;5049130;28;20546;-79
2021/08/04 11:54:32;;;;;;;5.05;1.88;;;;;28.20;101223.00;;;;5049193;28;20214;-78
2021/08/04 11:57:00;;;;;;;2.35;2.15;;;;;28.30;101225.00;;;;5046447;28;20196;-78
2021/08/04 11:59:28;;;;;;;2.75;2.42;;;;;28.40;101220.00;;;;5043634;28;20235;-79
2021/08/04 12:02:01;;;;;;;3.13;1.70;;;;;28.30;101222.00;;;;5044064;28;20203;-79
2021/08/04 12:04:30;;;;;;;1.92;1.77;;;;;28.40;101218.00;;;;5036802;28;20627;-79
2021/08/04 12:07:05;;;;;;;2.00;1.75;;;;;28.40;101205.00;;;;5028723;28;20196;-78
2021/08/04 12:09:34;;;;;;;2.83;2.30;;;;;28.50;101215.00;;;;5033081;28;20200;-79
2021/08/04 12:12:03;;;;;;;4.18;2.58;;;;;28.50;101211.00;;;;5030544;28;20194;-79
2021/08/04 12:14:33;;;;;;;2.25;1.90;;;;;28.50;101216.00;;;;5048413;28;20696;-78
2021/08/04 12:17:02;;;;;;;2.58;2.10;;;;;28.60;101205.00;;;;5048370;28;20195;-79
2021/08/04 12:19:42;;;;;;;2.17;1.85;;;;;28.70;101206.00;;;;5048462;28;20643;-79